createdAt,value
2023-02-01T00:00:01.071Z,5.3
2023-02-01T00:03:01.055Z,5.3
2023-02-01T00:06:01.036Z,5.3
2023-02-01T00:09:01.185Z,5.3
2023-02-01T00:12:01.034Z,5.3
2023-02-01T00:15:01.045Z,5.3
2023-02-01T00:18:01.044Z,5.3
2023-02-01T00:21:01.014Z,5.3
2023-02-01T00:24:01.066Z,5.2
2023-02-01T00:27:01.019Z,5.2
2023-02-01T00:30:01.070Z,5.2
2023-02-01T00:33:01.023Z,5.2
2023-02-01T00:36:01.005Z,5.2
2023-02-01T00:39:01.161Z,5.2
2023-02-01T00:42:01.043Z,5.2
2023-02-01T00:45:01.019Z,5.1
2023-02-01T00:48:01.087Z,5.1
2023-02-01T00:51:00.999Z,5.1
2023-02-01T00:54:01.034Z,5.1
2023-02-01T00:57:01.080Z,5.1
2023-02-01T01:00:01.135Z,5.1
2023-02-01T01:03:01.019Z,5.1
2023-02-01T01:06:01.028Z,5.1
2023-02-01T01:09:01.020Z,5.1
2023-02-01T01:12:01.048Z,5.1
2023-02-01T01:15:01.063Z,5.1
2023-02-01T01:18:01.087Z,5.1
2023-02-01T01:21:01.054Z,5
2023-02-01T01:24:01.043Z,5
2023-02-01T01:27:01.042Z,5
2023-02-01T01:30:01.012Z,5
2023-02-01T01:33:00.972Z,5
2023-02-01T01:36:01.099Z,5
2023-02-01T01:39:01.039Z,5
2023-02-01T01:42:01.053Z,5
2023-02-01T01:45:01.009Z,5
2023-02-01T01:48:01.022Z,5
2023-02-01T01:51:01.002Z,5
2023-02-01T01:54:01.071Z,5
2023-02-01T01:57:01.073Z,5
2023-02-01T02:00:01.087Z,5
2023-02-01T02:03:01.007Z,5
2023-02-01T02:06:01.030Z,5
2023-02-01T02:09:01.017Z,5
2023-02-01T02:12:01.061Z,5
2023-02-01T02:15:01.054Z,4.9
2023-02-01T02:18:01.056Z,4.9
2023-02-01T02:21:01.096Z,4.8
2023-02-01T02:24:01.046Z,4.8
2023-02-01T02:27:01.003Z,4.8
2023-02-01T02:30:01.057Z,4.8
2023-02-01T02:33:01.020Z,4.8
2023-02-01T02:36:01.041Z,4.8
2023-02-01T02:39:01.082Z,4.8
2023-02-01T02:42:01.007Z,4.8
2023-02-01T02:45:01.032Z,4.8
2023-02-01T02:48:01.063Z,4.8
2023-02-01T02:51:01.033Z,4.8
2023-02-01T02:54:01.053Z,4.8
2023-02-01T02:57:01.140Z,4.8
2023-02-01T03:00:01.145Z,4.8
2023-02-01T03:03:01.053Z,4.8
2023-02-01T03:06:01.057Z,4.8
2023-02-01T03:09:01.054Z,4.8
2023-02-01T03:12:01.082Z,4.8
2023-02-01T03:15:01.357Z,4.8
2023-02-01T03:18:01.407Z,4.8
2023-02-01T03:21:01.159Z,4.8
2023-02-01T03:24:01.115Z,4.8
2023-02-01T03:27:01.010Z,4.8
2023-02-01T03:30:01.114Z,4.8
2023-02-01T03:33:01.040Z,4.8
2023-02-01T03:36:00.995Z,4.9
2023-02-01T03:39:00.995Z,4.9
2023-02-01T03:42:01.025Z,4.9
2023-02-01T03:45:01.025Z,4.9
2023-02-01T03:48:01.033Z,4.9
2023-02-01T03:51:01.021Z,4.9
2023-02-01T03:54:01.055Z,4.9
2023-02-01T03:57:01.014Z,4.9
2023-02-01T04:00:00.984Z,4.9
2023-02-01T04:03:01.022Z,4.9
2023-02-01T04:06:01.075Z,4.9
2023-02-01T04:09:01.033Z,4.9
2023-02-01T04:12:01.048Z,4.9
2023-02-01T04:15:01.003Z,5
2023-02-01T04:18:01.064Z,5
2023-02-01T04:21:01.042Z,5
2023-02-01T04:24:01.017Z,5
2023-02-01T04:27:01.088Z,5.1
2023-02-01T04:30:01.148Z,5.1
2023-02-01T04:33:01.053Z,5.1
2023-02-01T04:36:01.015Z,5.1
2023-02-01T04:39:01.017Z,5.1
2023-02-01T04:42:01.016Z,5.1
2023-02-01T04:45:01.029Z,5.1
2023-02-01T04:48:01.147Z,5.1
2023-02-01T04:51:01.204Z,5
2023-02-01T04:54:01.026Z,5
2023-02-01T04:57:01.029Z,5
2023-02-01T05:00:01.154Z,5
2023-02-01T05:03:01.010Z,5
2023-02-01T05:06:01.027Z,5
2023-02-01T05:09:01.092Z,5
2023-02-01T05:12:01.128Z,4.9
2023-02-01T05:15:01.049Z,4.9
2023-02-01T05:18:01.013Z,4.9
2023-02-01T05:21:01.044Z,4.9
2023-02-01T05:24:01.032Z,4.9
2023-02-01T05:27:01.067Z,4.9
2023-02-01T05:30:01.050Z,4.9
2023-02-01T05:33:01.023Z,4.9
2023-02-01T05:36:01.029Z,4.9
2023-02-01T05:39:01.047Z,4.9
2023-02-01T05:42:01.081Z,4.9
2023-02-01T05:45:01.054Z,5
2023-02-01T05:48:01.044Z,5
2023-02-01T05:51:01.048Z,5
2023-02-01T05:54:01.084Z,5
2023-02-01T05:57:01.010Z,5
2023-02-01T06:00:01.255Z,5
2023-02-01T06:03:01.099Z,5
2023-02-01T06:06:01.023Z,5
2023-02-01T06:09:01.030Z,5
2023-02-01T06:12:01.085Z,5
2023-02-01T06:15:01.123Z,4.9
2023-02-01T06:18:01.038Z,4.9
2023-02-01T06:21:01.100Z,4.9
2023-02-01T06:24:01.054Z,4.9
2023-02-01T06:27:01.085Z,4.9
2023-02-01T06:30:01.034Z,4.8
2023-02-01T06:33:01.032Z,4.8
2023-02-01T06:36:00.999Z,4.8
2023-02-01T06:39:01.193Z,4.8
2023-02-01T06:42:01.048Z,4.8
2023-02-01T06:45:01.046Z,4.8
2023-02-01T06:48:01.013Z,4.8
2023-02-01T06:51:01.131Z,4.8
2023-02-01T06:54:01.058Z,4.8
2023-02-01T06:57:01.094Z,4.8
2023-02-01T07:00:01.145Z,4.8
2023-02-01T07:03:01.120Z,4.8
2023-02-01T07:06:01.175Z,4.8
2023-02-01T07:09:01.037Z,4.8
2023-02-01T07:12:01.181Z,5
2023-02-01T07:15:01.137Z,5
2023-02-01T07:18:01.145Z,5
2023-02-01T07:21:01.139Z,5
2023-02-01T07:24:01.202Z,5
2023-02-01T07:27:01.076Z,5
2023-02-01T07:30:01.104Z,5
2023-02-01T07:33:01.085Z,5
2023-02-01T07:36:01.181Z,5
2023-02-01T07:39:01.039Z,5
2023-02-01T07:42:01.098Z,5
2023-02-01T07:45:21.159Z,5
2023-02-01T07:48:01.373Z,5
2023-02-01T07:51:01.168Z,4.8
2023-02-01T07:54:01.137Z,4.8
2023-02-01T07:57:01.127Z,4.8
2023-02-01T08:00:01.587Z,4.8
2023-02-01T08:03:01.135Z,4.8
2023-02-01T08:06:01.081Z,4.8
2023-02-01T08:09:01.341Z,4.8
2023-02-01T08:12:01.188Z,4.8
2023-02-01T08:15:01.226Z,4.8
2023-02-01T08:18:01.159Z,4.8
2023-02-01T08:21:01.106Z,4.8
2023-02-01T08:24:01.087Z,4.8
2023-02-01T08:27:01.057Z,4.8
2023-02-01T08:30:01.131Z,4.8
2023-02-01T08:33:01.097Z,4.8
2023-02-01T08:36:01.083Z,4.8
2023-02-01T08:39:01.411Z,4.8
2023-02-01T08:42:01.092Z,4.8
2023-02-01T08:45:01.003Z,4.8
2023-02-01T08:48:01.075Z,4.8
2023-02-01T08:51:01.074Z,4.8
2023-02-01T08:54:01.072Z,4.8
2023-02-01T08:57:01.176Z,5.3
2023-02-01T09:00:01.123Z,5.3
2023-02-01T09:03:01.149Z,5.3
2023-02-01T09:06:01.094Z,5.3
2023-02-01T09:09:01.050Z,5.3
2023-02-01T09:12:01.174Z,5.3
2023-02-01T09:15:01.308Z,5.3
2023-02-01T09:18:01.159Z,5.3
2023-02-01T09:21:01.103Z,5.3
2023-02-01T09:24:01.129Z,5.3
2023-02-01T09:27:01.116Z,5.3
2023-02-01T09:30:01.172Z,5.3
2023-02-01T09:33:01.083Z,5.3
2023-02-01T09:36:01.142Z,5.3
2023-02-01T09:39:01.076Z,5.3
2023-02-01T09:42:01.217Z,5.3
2023-02-01T09:45:01.063Z,5.8
2023-02-01T09:48:01.095Z,5.9
2023-02-01T09:51:01.101Z,5.9
2023-02-01T09:54:01.164Z,5.9
2023-02-01T09:57:01.169Z,5.9
2023-02-01T10:00:01.238Z,5.9
2023-02-01T10:03:01.105Z,5.9
2023-02-01T10:06:01.278Z,5.9
2023-02-01T10:09:01.145Z,5.9
2023-02-01T10:12:01.134Z,5.9
2023-02-01T10:15:01.118Z,5.9
2023-02-01T10:18:01.076Z,5.9
2023-02-01T10:21:01.098Z,6.2
2023-02-01T10:24:12.406Z,6.2
2023-02-01T10:27:01.100Z,6.2
2023-02-01T10:30:01.138Z,6.2
2023-02-01T10:33:01.109Z,6.2
2023-02-01T10:36:01.200Z,6.2
2023-02-01T10:39:01.149Z,6.2
2023-02-01T10:42:01.087Z,6.3
2023-02-01T10:45:01.068Z,6.4
2023-02-01T10:48:01.142Z,6.4
2023-02-01T10:51:01.104Z,6.4
2023-02-01T10:54:01.094Z,6.4
2023-02-01T10:57:01.763Z,6.4
2023-02-01T11:00:01.109Z,6.4
2023-02-01T11:03:01.177Z,6.4
2023-02-01T11:06:01.040Z,6.4
2023-02-01T11:09:01.166Z,6.4
2023-02-01T11:12:01.226Z,6.7
2023-02-01T11:15:01.053Z,6.7
2023-02-01T11:18:01.067Z,6.7
2023-02-01T11:21:01.089Z,6.7
2023-02-01T11:24:01.149Z,6.7
2023-02-01T11:27:01.139Z,6.7
2023-02-01T11:30:01.187Z,6.7
2023-02-01T11:33:01.036Z,6.7
2023-02-01T11:36:01.195Z,6.7
2023-02-01T11:39:01.078Z,6.7
2023-02-01T11:42:01.164Z,6.7
2023-02-01T11:45:01.121Z,6.8
2023-02-01T11:48:01.097Z,6.8
2023-02-01T11:51:01.032Z,6.8
2023-02-01T11:54:01.162Z,6.8
2023-02-01T11:57:01.150Z,6.8
2023-02-01T12:00:01.208Z,6.8
2023-02-01T12:03:01.128Z,6.7
2023-02-01T12:06:01.145Z,6.7
2023-02-01T12:09:01.110Z,6.7
2023-02-01T12:12:01.030Z,6.7
2023-02-01T12:15:01.089Z,6.7
2023-02-01T12:18:01.138Z,6.7
2023-02-01T12:21:01.053Z,6.7
2023-02-01T12:24:01.090Z,6.7
2023-02-01T12:27:01.104Z,6.8
2023-02-01T12:30:01.188Z,6.8
2023-02-01T12:33:01.148Z,6.8
2023-02-01T12:36:01.048Z,6.8
2023-02-01T12:39:01.100Z,7
2023-02-01T12:42:01.095Z,7.1
2023-02-01T12:45:01.098Z,7.1
2023-02-01T12:48:01.079Z,7.1
2023-02-01T12:51:01.137Z,7.1
2023-02-01T12:54:01.122Z,7.1
2023-02-01T12:57:01.181Z,7.1
2023-02-01T13:00:01.197Z,7.1
2023-02-01T13:03:01.057Z,7.1
2023-02-01T13:06:01.139Z,7.1
2023-02-01T13:09:01.265Z,7
2023-02-01T13:12:01.057Z,7
2023-02-01T13:15:01.076Z,7
2023-02-01T13:18:01.122Z,7
2023-02-01T13:21:01.068Z,7
2023-02-01T13:24:01.056Z,7
2023-02-01T13:27:01.102Z,6.8
2023-02-01T13:30:01.278Z,6.8
2023-02-01T13:33:56.163Z,6.8
2023-02-01T13:36:01.134Z,6.6
2023-02-01T13:39:01.119Z,6.6
2023-02-01T13:42:01.171Z,6.6
2023-02-01T13:45:01.097Z,6.6
2023-02-01T13:48:01.191Z,6.6
2023-02-01T13:51:01.092Z,6.6
2023-02-01T13:54:01.151Z,6.6
2023-02-01T13:57:01.048Z,6.5
2023-02-01T14:00:01.175Z,6.5
2023-02-01T14:03:01.102Z,6.5
2023-02-01T14:06:01.095Z,6.5
2023-02-01T14:09:01.042Z,6.5
2023-02-01T14:12:01.053Z,6.2
2023-02-01T14:15:01.096Z,6.2
2023-02-01T14:18:01.143Z,6.1
2023-02-01T14:21:01.099Z,5.9
2023-02-01T14:24:01.105Z,5.7
2023-02-01T14:30:01.051Z,5.4
2023-02-01T14:33:00.958Z,5.4
2023-02-01T14:36:00.952Z,5.4
2023-02-01T14:39:01.001Z,4.9
2023-02-01T14:42:02.793Z,4.7
2023-02-01T14:45:00.969Z,4.6
2023-02-01T14:48:00.978Z,4.5
2023-02-01T14:51:00.930Z,4.5
2023-02-01T14:54:00.901Z,4.5
2023-02-01T14:57:00.937Z,4.5
2023-02-01T15:00:01.021Z,4.2
2023-02-01T15:03:01.036Z,4.2
2023-02-01T15:06:00.941Z,4.2
2023-02-01T15:09:00.898Z,4.2
2023-02-01T15:12:01.005Z,4.2
2023-02-01T15:15:00.925Z,4.2
2023-02-01T15:18:00.993Z,4.2
2023-02-01T15:21:10.082Z,4.2
2023-02-01T15:24:00.917Z,4.2
2023-02-01T15:27:00.878Z,4.2
2023-02-01T15:30:00.948Z,4.2
2023-02-01T15:33:01.050Z,4.2
2023-02-01T15:36:01.024Z,4.2
2023-02-01T15:39:00.884Z,4.2
2023-02-01T15:42:00.963Z,4.2
2023-02-01T15:45:00.930Z,4.2
2023-02-01T15:48:00.979Z,4.2
2023-02-01T15:51:01.003Z,3.8
2023-02-01T15:54:00.909Z,3.8
2023-02-01T15:57:00.926Z,3.8
2023-02-01T16:00:01.632Z,3.8
2023-02-01T16:03:01.174Z,3.8
2023-02-01T16:06:00.937Z,3.8
2023-02-01T16:09:00.888Z,3.8
2023-02-01T16:12:01.015Z,3.8
2023-02-01T16:15:00.920Z,3.8
2023-02-01T16:18:00.982Z,3.8
2023-02-01T16:21:00.884Z,3.8
2023-02-01T16:24:00.953Z,3.8
2023-02-01T16:27:00.875Z,3.8
2023-02-01T16:30:00.855Z,3.8
2023-02-01T16:33:01.132Z,3.8
2023-02-01T16:36:00.930Z,3.8
2023-02-01T16:39:00.901Z,3.8
2023-02-01T16:42:02.475Z,3.9
2023-02-01T16:45:00.931Z,3.9
2023-02-01T16:48:00.886Z,3.9
2023-02-01T16:51:00.990Z,3.9
2023-02-01T16:54:00.964Z,3.9
2023-02-01T16:57:00.867Z,3.9
2023-02-01T17:00:11.567Z,3.9
2023-02-01T17:03:00.847Z,3.9
2023-02-01T17:06:00.876Z,3.9
2023-02-01T17:09:00.854Z,3.9
2023-02-01T17:12:00.895Z,3.9
2023-02-01T17:15:00.866Z,3.9
2023-02-01T17:18:00.898Z,3.9
2023-02-01T17:21:00.913Z,4
2023-02-01T17:24:00.942Z,4
2023-02-01T17:27:00.933Z,4
2023-02-01T17:30:00.963Z,4
2023-02-01T17:33:16.853Z,4
2023-02-01T17:36:00.865Z,4
2023-02-01T17:39:06.655Z,4
2023-02-01T17:42:00.862Z,4
2023-02-01T17:45:00.884Z,4
2023-02-01T17:48:00.900Z,4
2023-02-01T17:51:00.901Z,4
2023-02-01T17:54:00.825Z,4.3
2023-02-01T17:57:00.908Z,4.3
2023-02-01T18:00:00.924Z,4.3
2023-02-01T18:03:00.896Z,4.4
2023-02-01T18:06:00.887Z,4.4
2023-02-01T18:09:00.819Z,4.4
2023-02-01T18:12:00.952Z,4.4
2023-02-01T18:15:00.895Z,4.4
2023-02-01T18:18:00.950Z,4.4
2023-02-01T18:21:00.846Z,4.5
2023-02-01T18:24:00.941Z,4.5
2023-02-01T18:27:00.842Z,4.5
2023-02-01T18:30:01.017Z,4.4
2023-02-01T18:33:00.864Z,4.4
2023-02-01T18:36:00.924Z,4.4
2023-02-01T18:39:00.843Z,4.4
2023-02-01T18:42:00.920Z,4.4
2023-02-01T18:45:00.914Z,4.5
2023-02-01T18:48:00.896Z,4.5
2023-02-01T18:51:00.882Z,4.5
2023-02-01T18:54:00.834Z,4.5
2023-02-01T18:57:00.860Z,4.5
2023-02-01T19:00:00.918Z,4.5
2023-02-01T19:03:00.876Z,4.4
2023-02-01T19:06:00.898Z,4.4
2023-02-01T19:09:00.873Z,4.4
2023-02-01T19:12:00.930Z,4.4
2023-02-01T19:15:00.840Z,4.4
2023-02-01T19:18:00.908Z,4.4
2023-02-01T19:21:01.017Z,4.4
2023-02-01T19:24:00.949Z,4.5
2023-02-01T19:27:00.978Z,4.5
2023-02-01T19:30:00.913Z,4.5
2023-02-01T19:33:00.860Z,4.5
2023-02-01T19:36:00.934Z,4.5
2023-02-01T19:39:00.906Z,4.5
2023-02-01T19:42:04.072Z,4.5
2023-02-01T19:45:00.924Z,4.5
2023-02-01T19:48:00.909Z,4.5
2023-02-01T19:51:00.936Z,4.5
2023-02-01T19:54:00.900Z,4.5
2023-02-01T19:57:00.970Z,4.5
2023-02-01T20:00:01.178Z,4.5
2023-02-01T20:03:00.100Z,4.5
2023-02-01T20:06:00.023Z,4.5
2023-02-01T20:09:00.209Z,4
2023-02-01T20:12:00.009Z,4
2023-02-01T20:15:00.029Z,4
2023-02-01T20:18:00.034Z,4
2023-02-01T20:21:00.027Z,4
2023-02-01T20:24:00.063Z,4
2023-02-01T20:27:00.884Z,4.2
2023-02-01T20:30:00.916Z,4.2
2023-02-01T20:33:00.893Z,4.2
2023-02-01T20:36:00.939Z,4.2
2023-02-01T20:39:00.930Z,4.2
2023-02-01T20:42:01.025Z,4.2
2023-02-01T20:45:00.954Z,4.2
2023-02-01T20:48:00.899Z,4.2
2023-02-01T20:51:00.894Z,4.2
2023-02-01T20:54:00.939Z,4.2
2023-02-01T20:57:00.930Z,4.2
2023-02-01T21:00:00.987Z,4.2
2023-02-01T21:03:00.871Z,4.2
2023-02-01T21:06:00.895Z,4.2
2023-02-01T21:09:00.999Z,4.2
2023-02-01T21:12:01.041Z,4.5
2023-02-01T21:15:00.977Z,4.5
2023-02-01T21:18:00.916Z,4.5
2023-02-01T21:21:00.866Z,4.5
2023-02-01T21:24:00.928Z,4.5
2023-02-01T21:27:00.927Z,4.5
2023-02-01T21:30:00.919Z,4.5
2023-02-01T21:33:00.919Z,4.5
2023-02-01T21:36:00.951Z,4.5
2023-02-01T21:39:00.897Z,4.5
2023-02-01T21:42:01.434Z,4.5
2023-02-01T21:45:01.027Z,4.4
2023-02-01T21:48:01.002Z,4.4
2023-02-01T21:51:00.952Z,4.4
2023-02-01T21:54:00.920Z,4.4
2023-02-01T21:57:00.892Z,4.4
2023-02-01T22:00:00.964Z,4.4
2023-02-01T22:03:00.930Z,4.4
2023-02-01T22:06:00.927Z,4.4
2023-02-01T22:09:00.883Z,4.4
2023-02-01T22:12:00.925Z,4.4
2023-02-01T22:15:00.961Z,4.4
2023-02-01T22:18:00.880Z,4.4
2023-02-01T22:21:00.998Z,4.4
2023-02-01T22:24:00.897Z,4.5
2023-02-01T22:27:14.671Z,4.5
2023-02-01T22:30:00.892Z,4.5
2023-02-01T22:33:00.902Z,4.5
2023-02-01T22:36:00.920Z,4.5
2023-02-01T22:39:00.889Z,4.5
2023-02-01T22:42:00.887Z,4.5
2023-02-01T22:45:00.895Z,4.5
2023-02-01T22:48:00.926Z,4.5
2023-02-01T22:51:00.920Z,4.5
2023-02-01T22:54:01.014Z,4.5
2023-02-01T22:57:00.851Z,4.5
2023-02-01T23:00:01.161Z,4.5
2023-02-01T23:03:01.099Z,4.5
2023-02-01T23:06:00.878Z,4.5
2023-02-01T23:09:00.902Z,4.5
2023-02-01T23:12:00.938Z,5
2023-02-01T23:15:00.883Z,5
2023-02-01T23:18:00.839Z,5
2023-02-01T23:21:00.875Z,5
2023-02-01T23:24:00.865Z,5
2023-02-01T23:27:00.920Z,5
2023-02-01T23:30:00.853Z,5
2023-02-01T23:33:00.837Z,5
2023-02-01T23:36:00.852Z,5
2023-02-01T23:39:00.957Z,5
2023-02-01T23:42:00.860Z,5
2023-02-01T23:45:00.888Z,5
2023-02-01T23:48:00.833Z,5
2023-02-01T23:51:00.879Z,5
2023-02-01T23:54:00.861Z,5
2023-02-01T23:57:00.847Z,5
